Terminal Aerodrome Forecast
Issued by NWS Brownsville, TX

Home | Current Version | Previous Version | Text Only | Print | Product List | Glossary On
Versions: 1 2 3 4 5 6 7 8 9 10 11 12 13 14 15 16 17 18 19 20 21 22 23 24 25 26 27 28 29 30 31 32
000
FTUS44 KBRO 261445 AAB
TAFMFE
TAF AMD
KMFE 261445Z 2615/2712 13005KT 2SM HZ BKN008 OVC019
      TEMPO 2615/2616 4SM HZ SCT008 BKN019
     FM261630 14015KT 5SM HZ BKN030
     FM261700 15016G22KT P6SM VCSH SCT030 BKN040 OVC250
      TEMPO 2619/2623 5SM -TSRA BKN025CB
     FM270200 14012G18KT P6SM VCSH BKN015 PROB30 2704/2708 4SM -TSRA
      BKN010CB=

USA.gov is the U.S. government's official web portal to all federal, state and local government web resources and services.